createdAt,value
2023-12-18T00:00:15.801Z,12.87
2023-12-18T00:02:46.273Z,10.43
2023-12-18T00:05:14.165Z,12.10
2023-12-18T00:07:42.481Z,12.40
2023-12-18T00:10:10.984Z,13.47
2023-12-18T00:12:39.309Z,12.47
2023-12-18T00:15:09.308Z,14.60
2023-12-18T00:17:37.451Z,12.23
2023-12-18T00:20:07.989Z,12.57
2023-12-18T00:22:36.028Z,11.67
2023-12-18T00:25:03.897Z,11.83
2023-12-18T00:27:31.838Z,11.97
2023-12-18T00:29:59.887Z,13.50
2023-12-18T00:32:27.851Z,11.87
2023-12-18T00:34:55.938Z,15.43
2023-12-18T00:37:30.903Z,14.70
2023-12-18T00:39:58.746Z,13.53
2023-12-18T00:42:27.015Z,13.13
2023-12-18T00:44:55.342Z,12.03
2023-12-18T00:47:23.377Z,11.30
2023-12-18T00:49:51.672Z,15.17
2023-12-18T00:52:19.740Z,11.90
2023-12-18T00:54:49.028Z,16.27
2023-12-18T00:57:16.956Z,13.83
2023-12-18T00:59:44.954Z,14.10
2023-12-18T01:02:12.814Z,13.10
2023-12-18T01:04:40.749Z,14.10
2023-12-18T01:07:08.618Z,12.57
2023-12-18T01:09:36.525Z,9.97
2023-12-18T01:12:06.335Z,14.47
2023-12-18T01:14:34.291Z,14.47
2023-12-18T01:17:02.627Z,11.27
2023-12-18T01:19:30.636Z,12.43
2023-12-18T01:21:58.499Z,12.63
2023-12-18T01:24:26.394Z,10.30
2023-12-18T01:26:54.302Z,11.97
2023-12-18T01:29:23.591Z,12.00
2023-12-18T01:31:51.623Z,11.67
2023-12-18T01:34:19.736Z,10.77
2023-12-18T01:36:47.799Z,12.37
2023-12-18T01:39:16.230Z,11.33
2023-12-18T01:41:44.089Z,13.07
2023-12-18T01:44:11.922Z,12.33
2023-12-18T01:46:41.472Z,11.80
2023-12-18T01:49:10.978Z,12.80
2023-12-18T01:51:39.079Z,9.50
2023-12-18T01:54:08.501Z,12.40
2023-12-18T01:56:36.857Z,14.63
2023-12-18T01:59:05.408Z,11.10
2023-12-18T02:01:33.927Z,10.83
2023-12-18T02:04:03.436Z,12.93
2023-12-18T02:06:31.653Z,11.57
2023-12-18T02:08:59.647Z,10.03
2023-12-18T02:11:28.173Z,12.20
2023-12-18T02:13:56.201Z,10.07
2023-12-18T02:16:24.345Z,11.67
2023-12-18T02:18:52.423Z,10.57
2023-12-18T02:21:23.076Z,10.47
2023-12-18T02:23:53.082Z,11.60
2023-12-18T02:26:21.409Z,11.50
2023-12-18T02:28:49.339Z,11.00
2023-12-18T02:31:19.511Z,10.53
2023-12-18T02:33:50.196Z,10.13
2023-12-18T02:36:19.661Z,9.63
2023-12-18T02:38:47.507Z,10.83
2023-12-18T02:41:16.791Z,10.93
2023-12-18T02:43:44.698Z,9.57
2023-12-18T02:46:12.557Z,9.13
2023-12-18T02:48:41.546Z,12.37
2023-12-18T02:51:09.463Z,13.33
2023-12-18T02:53:38.029Z,10.80
2023-12-18T02:56:06.733Z,9.90
2023-12-18T02:58:35.963Z,13.07
2023-12-18T03:01:03.891Z,9.63
2023-12-18T03:03:31.814Z,12.30
2023-12-18T03:05:59.744Z,9.97
2023-12-18T03:08:27.678Z,10.77
2023-12-18T03:10:55.616Z,11.03
2023-12-18T03:13:23.547Z,11.13
2023-12-18T03:15:53.082Z,9.80
2023-12-18T03:18:21.148Z,9.70
2023-12-18T03:20:50.482Z,10.17
2023-12-18T03:23:18.352Z,11.20
2023-12-18T03:25:46.344Z,9.43
2023-12-18T03:28:14.793Z,8.60
2023-12-18T03:30:43.001Z,11.77
2023-12-18T03:33:13.697Z,8.57
2023-12-18T03:35:41.737Z,9.87
2023-12-18T03:38:09.746Z,12.07
2023-12-18T03:40:37.632Z,10.23
2023-12-18T03:43:05.996Z,9.47
2023-12-18T03:45:33.949Z,12.87
2023-12-18T03:48:01.995Z,10.60
2023-12-18T03:50:31.225Z,12.80
2023-12-18T03:52:59.084Z,11.50
2023-12-18T03:55:26.961Z,10.60
2023-12-18T03:57:55.215Z,11.23
2023-12-18T04:00:23.299Z,8.93
2023-12-18T04:02:51.280Z,9.53
2023-12-18T04:05:19.436Z,11.97
2023-12-18T04:07:48.773Z,10.93
2023-12-18T04:10:16.688Z,10.43
2023-12-18T04:12:44.615Z,10.00
2023-12-18T04:15:12.948Z,10.33
2023-12-18T04:17:41.160Z,10.03
2023-12-18T04:20:10.231Z,10.37
2023-12-18T04:22:38.092Z,11.37
2023-12-18T04:25:08.631Z,11.87
2023-12-18T04:27:36.551Z,10.90
2023-12-18T04:30:04.991Z,10.00
2023-12-18T04:32:32.917Z,13.40
2023-12-18T04:35:01.596Z,9.67
2023-12-18T04:37:29.530Z,10.77
2023-12-18T04:39:57.468Z,9.33
2023-12-18T04:42:26.757Z,9.83
2023-12-18T04:44:54.608Z,9.80
2023-12-18T04:47:22.524Z,12.33
2023-12-18T04:49:50.509Z,11.43
2023-12-18T04:52:18.418Z,10.07
2023-12-18T04:54:46.798Z,13.43
2023-12-18T04:57:14.810Z,8.93
2023-12-18T04:59:44.069Z,10.50
2023-12-18T05:02:11.992Z,11.20
2023-12-18T05:04:39.870Z,9.57
2023-12-18T05:07:09.516Z,11.87
2023-12-18T05:09:37.533Z,11.10
2023-12-18T05:12:06.455Z,10.47
2023-12-18T05:14:34.690Z,11.80
2023-12-18T05:17:04.036Z,9.90
2023-12-18T05:19:33.413Z,10.90
2023-12-18T05:22:01.337Z,10.37
2023-12-18T05:24:29.362Z,11.67
2023-12-18T05:26:57.317Z,11.57
2023-12-18T05:29:25.163Z,11.13
2023-12-18T05:31:53.623Z,13.10
2023-12-18T05:34:26.553Z,8.97
2023-12-18T05:36:56.447Z,12.60
2023-12-18T05:39:25.343Z,13.60
2023-12-18T05:41:53.314Z,13.20
2023-12-18T05:44:21.121Z,10.67
2023-12-18T05:46:48.947Z,13.37
2023-12-18T05:49:16.872Z,12.93
2023-12-18T05:51:46.236Z,10.83
2023-12-18T05:54:14.253Z,13.63
2023-12-18T05:56:42.215Z,12.37
2023-12-18T05:59:10.072Z,12.30
2023-12-18T06:01:38.075Z,10.97
2023-12-18T06:04:06.452Z,11.53
2023-12-18T06:06:34.451Z,11.23
2023-12-18T06:09:04.409Z,12.67
2023-12-18T06:11:32.331Z,11.80
2023-12-18T06:14:00.315Z,12.03
2023-12-18T06:16:28.099Z,11.33
2023-12-18T06:18:56.071Z,14.53
2023-12-18T06:21:24.069Z,12.30
2023-12-18T06:23:51.872Z,13.23
2023-12-18T06:26:21.119Z,14.20
2023-12-18T06:28:48.993Z,12.90
2023-12-18T06:31:16.974Z,11.40
2023-12-18T06:33:44.996Z,12.67
2023-12-18T06:36:17.034Z,12.00
2023-12-18T06:38:44.967Z,11.47
2023-12-18T06:41:13.010Z,12.87
2023-12-18T06:43:42.464Z,13.03
2023-12-18T06:46:14.143Z,12.57
2023-12-18T06:48:43.972Z,12.53
2023-12-18T06:51:12.157Z,12.10
2023-12-18T06:53:40.194Z,12.17
2023-12-18T06:56:08.848Z,11.37
2023-12-18T06:58:36.888Z,12.97
2023-12-18T07:01:06.464Z,12.10
2023-12-18T07:03:34.440Z,12.13
2023-12-18T07:06:03.437Z,14.53
2023-12-18T07:08:31.370Z,13.50
2023-12-18T07:10:59.243Z,13.53
2023-12-18T07:13:27.322Z,14.33
2023-12-18T07:15:55.128Z,12.53
2023-12-18T07:18:24.501Z,12.67
2023-12-18T07:20:52.450Z,14.00
2023-12-18T07:23:20.417Z,11.87
2023-12-18T07:25:48.324Z,12.03
2023-12-18T07:28:16.158Z,13.10
2023-12-18T07:30:44.087Z,12.07
2023-12-18T07:33:12.562Z,13.07
2023-12-18T07:35:42.068Z,13.90
2023-12-18T07:38:10.096Z,14.40
2023-12-18T07:40:38.078Z,15.10
2023-12-18T07:43:06.261Z,14.00
2023-12-18T07:45:34.165Z,16.50
2023-12-18T07:48:02.220Z,14.80
2023-12-18T07:50:30.210Z,12.70
2023-12-18T07:52:59.523Z,14.20
2023-12-18T07:55:27.347Z,16.17
2023-12-18T07:57:55.200Z,14.13
2023-12-18T08:00:23.125Z,13.00
2023-12-18T08:02:51.097Z,14.67
2023-12-18T08:05:19.005Z,13.97
2023-12-18T08:07:47.940Z,16.53
2023-12-18T08:10:17.339Z,16.30
2023-12-18T08:12:45.635Z,15.43
2023-12-18T08:15:14.793Z,16.40
2023-12-18T08:17:42.776Z,15.60
2023-12-18T08:20:12.352Z,17.57
2023-12-18T08:22:40.647Z,14.90
2023-12-18T08:25:09.437Z,14.53
2023-12-18T08:27:38.811Z,15.83
2023-12-18T08:30:08.187Z,14.73
2023-12-18T08:32:36.176Z,15.17
2023-12-18T08:35:04.209Z,15.90
2023-12-18T08:37:32.373Z,15.83
2023-12-18T08:40:00.453Z,14.00
2023-12-18T08:42:29.160Z,14.73
2023-12-18T08:44:58.676Z,17.10
2023-12-18T08:47:26.872Z,14.80
2023-12-18T08:49:54.933Z,14.67
2023-12-18T08:52:22.897Z,14.50
2023-12-18T08:54:50.870Z,14.07
2023-12-18T08:57:18.954Z,13.57
2023-12-18T08:59:52.513Z,15.40
2023-12-18T09:02:23.580Z,12.50
2023-12-18T09:04:56.696Z,17.63
2023-12-18T09:07:24.831Z,16.43
2023-12-18T09:09:53.104Z,14.07
2023-12-18T09:12:21.046Z,14.37
2023-12-18T09:14:48.992Z,12.33
2023-12-18T09:17:17.021Z,14.33
2023-12-18T09:19:46.318Z,16.80
2023-12-18T09:22:14.351Z,15.77
2023-12-18T09:24:42.825Z,16.63
2023-12-18T09:27:10.790Z,14.50
2023-12-18T09:29:38.796Z,14.37
2023-12-18T09:32:08.638Z,13.80
2023-12-18T09:34:36.767Z,15.33
2023-12-18T09:37:06.214Z,17.10
2023-12-18T09:39:34.211Z,13.53
2023-12-18T09:42:03.377Z,16.80
2023-12-18T09:44:32.747Z,16.07
2023-12-18T09:47:03.816Z,13.40
2023-12-18T09:49:32.192Z,14.80
2023-12-18T09:52:03.142Z,15.00
2023-12-18T09:54:33.299Z,14.80
2023-12-18T09:57:03.899Z,16.13
2023-12-18T09:59:31.752Z,13.87
2023-12-18T10:02:01.203Z,16.47
2023-12-18T10:04:29.249Z,13.53
2023-12-18T10:06:57.138Z,16.40
2023-12-18T10:09:25.069Z,14.33
2023-12-18T10:11:54.466Z,16.50
2023-12-18T10:14:22.430Z,16.13
2023-12-18T10:16:50.448Z,16.53
2023-12-18T10:19:18.366Z,17.93
2023-12-18T10:21:46.426Z,15.87
2023-12-18T10:24:17.902Z,15.40
2023-12-18T10:26:48.578Z,19.80
2023-12-18T10:29:17.866Z,15.87
2023-12-18T10:31:46.558Z,16.43
2023-12-18T10:34:14.528Z,17.43
2023-12-18T10:36:43.419Z,15.03
2023-12-18T10:39:14.898Z,21.13
2023-12-18T10:41:46.554Z,21.03
2023-12-18T10:44:16.472Z,17.73
2023-12-18T10:46:49.116Z,16.17
2023-12-18T10:49:18.672Z,16.83
2023-12-18T10:51:48.430Z,16.23
2023-12-18T10:54:16.796Z,19.33
2023-12-18T10:56:46.601Z,15.87
2023-12-18T10:59:16.784Z,17.80
2023-12-18T11:01:47.276Z,16.57
2023-12-18T11:04:15.508Z,15.80
2023-12-18T11:06:44.800Z,18.53
2023-12-18T11:09:12.739Z,20.00
2023-12-18T11:11:41.706Z,19.50
2023-12-18T11:14:18.303Z,17.23
2023-12-18T11:17:00.825Z,20.03
2023-12-18T11:19:38.273Z,19.33
2023-12-18T11:22:07.410Z,21.87
2023-12-18T11:24:39.240Z,18.67
2023-12-18T11:27:08.704Z,21.10
2023-12-18T11:29:45.466Z,20.67
2023-12-18T11:32:44.680Z,20.43
2023-12-18T11:35:13.750Z,18.43
2023-12-18T11:37:43.883Z,21.30
2023-12-18T11:40:37.598Z,20.67
2023-12-18T11:43:06.731Z,22.10
2023-12-18T11:45:38.539Z,23.20
2023-12-18T11:48:09.204Z,20.73
2023-12-18T11:50:38.612Z,25.87
2023-12-18T11:53:10.220Z,21.00
2023-12-18T11:55:46.717Z,22.47
2023-12-18T11:58:17.091Z,21.53
2023-12-18T12:00:45.053Z,22.97
2023-12-18T12:03:14.731Z,20.07
2023-12-18T12:05:43.228Z,20.17
2023-12-18T12:08:12.023Z,23.80
2023-12-18T12:10:44.379Z,19.67
2023-12-18T12:13:20.059Z,19.10
2023-12-18T12:15:58.693Z,18.27
2023-12-18T12:18:30.537Z,23.97
2023-12-18T12:20:58.756Z,21.40
2023-12-18T12:23:27.043Z,22.00
2023-12-18T12:25:58.962Z,22.33
2023-12-18T12:28:29.514Z,24.93
2023-12-18T12:30:57.724Z,20.47
2023-12-18T12:33:25.958Z,21.37
2023-12-18T12:35:55.463Z,22.47
2023-12-18T12:38:23.380Z,21.03
2023-12-18T12:40:51.281Z,24.77
2023-12-18T12:43:19.165Z,27.13
2023-12-18T12:45:47.168Z,23.90
2023-12-18T12:48:15.400Z,23.47
2023-12-18T12:50:44.878Z,23.57
2023-12-18T12:53:14.647Z,21.67
2023-12-18T12:55:43.634Z,24.93
2023-12-18T12:58:12.664Z,22.53
2023-12-18T13:00:40.881Z,22.90
2023-12-18T13:03:09.272Z,23.33
2023-12-18T13:05:38.510Z,23.00
2023-12-18T13:08:06.688Z,24.83
2023-12-18T13:10:35.994Z,28.30
2023-12-18T13:13:04.089Z,25.47
2023-12-18T13:15:32.003Z,25.60
2023-12-18T13:18:00.008Z,21.60
2023-12-18T13:20:29.341Z,22.37
2023-12-18T13:22:57.928Z,23.70
2023-12-18T13:25:25.890Z,22.03
2023-12-18T13:27:55.442Z,29.33
2023-12-18T13:30:23.685Z,24.80
2023-12-18T13:32:51.751Z,25.70
2023-12-18T13:35:20.148Z,25.97
2023-12-18T13:37:48.189Z,32.20
2023-12-18T13:40:16.125Z,25.33
2023-12-18T13:42:44.100Z,27.20
2023-12-18T13:45:13.565Z,23.13
2023-12-18T13:47:41.679Z,24.63
2023-12-18T13:50:10.931Z,25.83
2023-12-18T13:52:39.999Z,23.77
2023-12-18T13:55:08.540Z,22.93
2023-12-18T13:57:43.499Z,24.70
2023-12-18T14:00:21.141Z,27.80
2023-12-18T14:02:50.941Z,23.70
2023-12-18T14:05:20.129Z,22.57
2023-12-18T14:07:48.475Z,24.10
2023-12-18T14:10:16.536Z,24.57
2023-12-18T14:12:44.696Z,24.70
2023-12-18T14:15:13.093Z,21.97
2023-12-18T14:17:42.417Z,22.97
2023-12-18T14:20:11.915Z,22.57
2023-12-18T14:22:40.024Z,24.30
2023-12-18T14:25:09.015Z,22.90
2023-12-18T14:27:37.110Z,20.73
2023-12-18T14:30:06.056Z,22.00
2023-12-18T14:32:34.027Z,23.43
2023-12-18T14:35:03.593Z,23.03
2023-12-18T14:37:31.608Z,20.60
2023-12-18T14:40:01.079Z,23.80
2023-12-18T14:42:29.183Z,20.07
2023-12-18T14:44:57.046Z,22.90
2023-12-18T14:47:24.985Z,20.83
2023-12-18T14:49:52.949Z,21.10
2023-12-18T14:52:22.266Z,21.77
2023-12-18T14:54:50.185Z,21.33
2023-12-18T14:57:18.146Z,19.70
2023-12-18T14:59:46.062Z,19.47
2023-12-18T15:02:14.080Z,21.10
2023-12-18T15:04:42.109Z,22.10
2023-12-18T15:07:10.241Z,20.33
2023-12-18T15:09:39.826Z,20.43
2023-12-18T15:12:08.401Z,24.00
2023-12-18T15:14:36.311Z,21.77
2023-12-18T15:17:06.405Z,25.43
2023-12-18T15:19:36.996Z,22.03
2023-12-18T15:22:05.834Z,24.07
2023-12-18T15:24:33.949Z,25.00
2023-12-18T15:27:03.158Z,24.40
2023-12-18T15:29:31.718Z,23.10
2023-12-18T15:31:59.597Z,21.73
2023-12-18T15:34:27.896Z,23.37
2023-12-18T15:36:55.899Z,25.77
2023-12-18T15:39:24.870Z,21.83
2023-12-18T15:41:53.356Z,23.17
2023-12-18T15:44:22.705Z,20.00
2023-12-18T15:46:50.576Z,20.37
2023-12-18T15:49:19.607Z,21.83
2023-12-18T15:51:47.750Z,21.67
2023-12-18T15:54:15.656Z,21.80
2023-12-18T15:56:45.567Z,20.40
2023-12-18T15:59:14.187Z,21.67
2023-12-18T16:01:47.511Z,23.53
2023-12-18T16:04:15.521Z,21.10
2023-12-18T16:06:44.746Z,22.57
2023-12-18T16:09:12.965Z,22.60
2023-12-18T16:11:41.847Z,22.60
2023-12-18T16:14:09.820Z,21.70
2023-12-18T16:16:38.665Z,20.23
2023-12-18T16:19:07.968Z,21.73
2023-12-18T16:21:36.106Z,21.57
2023-12-18T16:24:04.064Z,23.40
2023-12-18T16:26:35.975Z,19.77
2023-12-18T16:29:06.423Z,21.33
2023-12-18T16:31:35.603Z,25.40
2023-12-18T16:34:03.845Z,21.43
2023-12-18T16:36:33.439Z,23.43
2023-12-18T16:39:01.327Z,22.47
2023-12-18T16:41:32.748Z,23.77
2023-12-18T16:44:01.289Z,23.17
2023-12-18T16:46:39.655Z,27.60
2023-12-18T16:49:11.451Z,22.17
2023-12-18T16:51:41.234Z,23.93
2023-12-18T16:54:09.163Z,25.57
2023-12-18T16:56:37.900Z,25.53
2023-12-18T16:59:06.233Z,24.43
2023-12-18T17:01:34.423Z,21.67
2023-12-18T17:04:02.564Z,24.83
2023-12-18T17:06:30.748Z,22.07
2023-12-18T17:09:00.098Z,23.77
2023-12-18T17:11:28.054Z,28.37
2023-12-18T17:13:55.930Z,24.90
2023-12-18T17:16:24.004Z,25.93
2023-12-18T17:18:51.921Z,22.70
2023-12-18T17:21:19.939Z,25.60
2023-12-18T17:23:48.773Z,23.40
2023-12-18T17:26:18.049Z,28.27
2023-12-18T17:28:45.965Z,26.63
2023-12-18T17:31:13.846Z,25.30
2023-12-18T17:33:41.804Z,24.07
2023-12-18T17:36:09.851Z,24.73
2023-12-18T17:38:37.698Z,24.97
2023-12-18T17:41:05.846Z,26.00
2023-12-18T17:43:35.371Z,24.80
2023-12-18T17:46:03.316Z,28.10
2023-12-18T17:48:31.567Z,23.27
2023-12-18T17:51:01.833Z,24.30
2023-12-18T17:53:31.261Z,26.17
2023-12-18T17:55:59.151Z,27.40
2023-12-18T17:58:27.012Z,25.50
2023-12-18T18:00:56.385Z,29.10
2023-12-18T18:03:24.399Z,26.73
2023-12-18T18:05:52.431Z,27.30
2023-12-18T18:08:20.293Z,26.27
2023-12-18T18:10:49.523Z,27.80
2023-12-18T18:13:17.521Z,26.93
2023-12-18T18:15:45.588Z,28.50
2023-12-18T18:18:14.956Z,25.73
2023-12-18T18:20:43.618Z,30.37
2023-12-18T18:23:11.551Z,27.47
2023-12-18T18:25:40.291Z,25.93
2023-12-18T18:28:09.067Z,26.50
2023-12-18T18:30:37.358Z,30.40
2023-12-18T18:33:07.725Z,31.27
2023-12-18T18:35:38.675Z,28.40
2023-12-18T18:38:06.633Z,30.90
2023-12-18T18:40:34.716Z,29.20
2023-12-18T18:43:02.531Z,28.73
2023-12-18T18:45:29.558Z,28.53
2023-12-18T18:47:57.493Z,27.67
2023-12-18T18:50:25.470Z,28.60
2023-12-18T18:52:54.652Z,31.30
2023-12-18T18:55:22.500Z,29.03
2023-12-18T18:57:50.604Z,29.40
2023-12-18T19:00:19.699Z,30.23
2023-12-18T19:02:48.071Z,30.60
2023-12-18T19:05:17.433Z,29.20
2023-12-18T19:07:46.573Z,31.07
2023-12-18T19:10:16.004Z,32.00
2023-12-18T19:12:44.966Z,29.63
2023-12-18T19:15:13.330Z,28.17
2023-12-18T19:17:43.057Z,28.67
2023-12-18T19:20:11.919Z,28.97
2023-12-18T19:22:40.528Z,30.63
2023-12-18T19:25:09.091Z,27.90
2023-12-18T19:27:40.098Z,27.63
2023-12-18T19:30:09.480Z,30.73
2023-12-18T19:32:37.679Z,28.50
2023-12-18T19:35:06.420Z,28.13
2023-12-18T19:37:34.319Z,27.30
2023-12-18T19:40:04.590Z,28.80
2023-12-18T19:42:32.951Z,27.00
2023-12-18T19:45:02.241Z,31.67
2023-12-18T19:47:30.075Z,30.80
2023-12-18T19:49:58.080Z,26.03
2023-12-18T19:52:26.011Z,32.37
2023-12-18T19:54:54.255Z,28.40
2023-12-18T19:57:22.240Z,29.10
2023-12-18T19:59:50.211Z,30.20
2023-12-18T20:02:19.421Z,27.40
2023-12-18T20:04:47.202Z,28.67
2023-12-18T20:07:15.195Z,30.97
2023-12-18T20:09:43.831Z,27.17
2023-12-18T20:12:11.740Z,30.23
2023-12-18T20:14:39.606Z,29.27
2023-12-18T20:17:07.702Z,30.87
2023-12-18T20:19:37.018Z,31.43
2023-12-18T20:22:05.476Z,29.30
2023-12-18T20:24:33.672Z,30.30
2023-12-18T20:27:01.814Z,30.37
2023-12-18T20:29:30.877Z,30.97
2023-12-18T20:31:59.090Z,31.77
2023-12-18T20:34:27.022Z,29.93
2023-12-18T20:36:56.267Z,29.30
2023-12-18T20:39:24.267Z,27.87
2023-12-18T20:41:52.188Z,27.13
2023-12-18T20:44:20.056Z,29.27
2023-12-18T20:46:47.890Z,27.80
2023-12-18T20:49:15.799Z,27.37
2023-12-18T20:51:44.524Z,28.20
2023-12-18T20:54:13.805Z,26.03
2023-12-18T20:56:41.652Z,27.23
2023-12-18T20:59:09.088Z,29.57
2023-12-18T21:01:37.255Z,28.90
2023-12-18T21:04:05.406Z,30.23
2023-12-18T21:06:33.805Z,32.40
2023-12-18T21:09:01.774Z,31.07
2023-12-18T21:11:31.126Z,26.43
2023-12-18T21:13:59.096Z,31.30
2023-12-18T21:16:26.988Z,27.83
2023-12-18T21:18:54.921Z,28.70
2023-12-18T21:21:23.117Z,30.00
2023-12-18T21:23:51.026Z,27.97
2023-12-18T21:26:18.954Z,27.37
2023-12-18T21:28:48.161Z,29.87
2023-12-18T21:31:16.146Z,27.53
2023-12-18T21:33:44.177Z,28.27
2023-12-18T21:36:14.409Z,30.43
2023-12-18T21:38:42.428Z,29.97
2023-12-18T21:41:10.341Z,28.93
2023-12-18T21:43:38.425Z,29.73
2023-12-18T21:46:07.689Z,32.30
2023-12-18T21:48:36.017Z,29.40
2023-12-18T21:51:04.057Z,24.73
2023-12-18T21:53:31.963Z,29.03
2023-12-18T21:55:59.901Z,28.50
2023-12-18T21:58:27.797Z,28.03
2023-12-18T22:00:55.864Z,28.17
2023-12-18T22:03:25.445Z,29.83
2023-12-18T22:05:54.421Z,29.10
2023-12-18T22:08:22.415Z,28.30
2023-12-18T22:10:50.490Z,31.00
2023-12-18T22:13:18.513Z,32.60
2023-12-18T22:15:46.433Z,30.67
2023-12-18T22:18:14.471Z,31.37
2023-12-18T22:20:44.884Z,33.33
2023-12-18T22:23:14.079Z,31.13
2023-12-18T22:25:42.043Z,35.40
2023-12-18T22:28:12.728Z,31.83
2023-12-18T22:30:40.624Z,32.63
2023-12-18T22:33:08.643Z,33.57
2023-12-18T22:35:36.611Z,33.83
2023-12-18T22:38:06.746Z,38.00
2023-12-18T22:40:35.004Z,35.80
2023-12-18T22:43:03.137Z,36.20
2023-12-18T22:45:31.051Z,36.13
2023-12-18T22:47:59.108Z,38.70
2023-12-18T22:50:28.611Z,34.33
2023-12-18T22:52:56.725Z,34.27
2023-12-18T22:55:28.293Z,35.27
2023-12-18T22:57:56.474Z,33.83
2023-12-18T23:00:29.623Z,32.17
2023-12-18T23:02:57.700Z,30.53
2023-12-18T23:05:25.794Z,33.13
2023-12-18T23:07:54.132Z,29.17
2023-12-18T23:10:22.083Z,27.90
2023-12-18T23:12:51.524Z,33.57
2023-12-18T23:15:20.322Z,29.77
2023-12-18T23:17:48.289Z,32.37
2023-12-18T23:20:16.222Z,31.83
2023-12-18T23:22:44.513Z,35.90
2023-12-18T23:25:16.301Z,33.73
2023-12-18T23:27:44.574Z,35.27
2023-12-18T23:30:14.221Z,31.37
2023-12-18T23:32:42.625Z,32.83
2023-12-18T23:35:11.031Z,29.37
2023-12-18T23:37:39.395Z,30.87
2023-12-18T23:40:08.311Z,27.67
2023-12-18T23:42:36.248Z,30.57
2023-12-18T23:45:04.754Z,29.87
2023-12-18T23:47:34.032Z,27.70
2023-12-18T23:50:02.138Z,26.27
2023-12-18T23:52:29.974Z,24.50
2023-12-18T23:54:57.949Z,23.87
2023-12-18T23:57:25.809Z,29.03
2023-12-18T23:59:53.729Z,26.90
